Flight Track Log - Related Links

Times and Time Zones

All times are in EDT time to prevent confusion due to time zone crossing. See the GJS6221 flight status page for this flight to view local times or setup timezone preferences in your user account.

Time Position Orientation Groundspeed Altitude Reporting Facility
EDT Latitude Longitude Course Direction KTS MPH feet Rate Location/Type
Mon 07:09:53 AM 45.4333 -73.7500 173° South 160 184 1,700  Level Montreal Center
Mon 07:10:53 AM 45.4000 -73.7667 199° South 190 219 5,300 3,250 Climbing Montreal Center
Mon 07:11:53 AM 45.3333 -73.8000 199° South 250 288 8,200 2,750 Climbing Montreal Center
Mon 07:12:53 AM 45.2667 -73.8333 199° South 280 322 10,800 2,350 Climbing Montreal Center
Mon 07:13:53 AM 45.1667 -73.8833 199° South 330 380 12,900 2,350 Climbing Montreal Center
Mon 07:14:53 AM 45.0833 -73.9000 188° South 350 403 15,500 2,550 Climbing Montreal Center
Mon 07:15:00 AM 44.6307 -74.1177 173° South  Level FlightAware Approximate
Mon 07:15:53 AM 44.9833 -73.9167 187° South 360 414 18,000  Level Montreal Center
Mon 07:17:42 AM 44.7917 -73.9025 177° South 384 442 22,000 1,890 Climbing Boston Center
Mon 07:18:54 AM 44.6792 -73.8969 178° South 392 451 23,700 909 Climbing Boston Center
Mon 07:19:54 AM 44.5500 -73.8908 178° South 419 482 24,000 150 Climbing Boston Center
Mon 07:20:54 AM 44.4314 -73.8878 179° South 426 490 24,000  Level Boston Center
Mon 07:21:54 AM 44.3189 -73.8822 178° South 421 484 24,000  Level Boston Center
Mon 07:22:54 AM 44.1961 -73.8764 178° South 415 478 24,000  Level Boston Center
Mon 07:23:54 AM 44.0836 -73.8708 178° South 410 472 24,000  Level Boston Center
Mon 07:24:54 AM 43.9692 -73.8650 178° South 410 472 24,000  Level Boston Center
Mon 07:25:54 AM 43.8631 -73.8567 177° South 410 472 24,000  Level Boston Center
Mon 07:26:54 AM 43.7525 -73.8514 178° South 410 472 24,000  Level Boston Center
Mon 07:27:54 AM 43.6381 -73.8458 178° South 405 466 24,000  Level Boston Center
Mon 07:28:54 AM 43.5256 -73.8433 179° South 405 466 24,000  Level Boston Center
Mon 07:29:54 AM 43.4131 -73.8319 176° South 410 472 24,000  Level Boston Center
Mon 07:30:54 AM 43.2986 -73.8322 180° South 410 472 24,000 -400 Level Boston Center
Mon 07:31:54 AM 43.1756 -73.8236 177° South 410 472 23,200 -900 Descending Boston Center
Mon 07:32:54 AM 43.0653 -73.8211 179° South 405 466 22,200 -600 Descending Boston Center
Mon 07:33:54 AM 42.9547 -73.8189 179° South 400 460 22,000 -100 Descending Boston Center
Mon 07:34:54 AM 42.8422 -73.8106 177° South 405 466 22,000  Level Boston Center
Mon 07:35:54 AM 42.7297 -73.8025 177° South 405 466 22,000  Level Boston Center
Mon 07:36:54 AM 42.6156 -73.7803 172° South 411 473 22,000 -350 Level Boston Center
Mon 07:37:54 AM 42.5197 -73.7611 172° South 406 467 21,300 -1,100 Descending Boston Center
Mon 07:38:54 AM 42.4117 -73.7364 170° South 406 467 19,800 -1,150 Descending Boston Center
Mon 07:39:54 AM 42.3056 -73.7286 177° South 401 461 19,000 -400 Descending Boston Center
Mon 07:40:54 AM 42.1908 -73.7347 182° South 378 435 19,000  Level Boston Center
Mon 07:41:54 AM 42.0992 -73.7439 184° South 378 435 19,000  Level Boston Center
Mon 07:42:54 AM 41.9947 -73.7503 183° South 378 435 19,000 -900 Level Boston Center
Mon 07:43:54 AM 41.8800 -73.7589 183° South 384 442 17,200 -1,850 Descending Boston Center
Mon 07:44:54 AM 41.7944 -73.7656 183° South 363 418 15,300 -2,100 Descending Boston Center
Mon 07:45:54 AM 41.6944 -73.7744 184° South 338 389 13,000 -1,850 Descending Boston Center
Mon 07:46:54 AM 41.6214 -73.7814 184° South 316 364 11,600 -1,474 Descending Boston Center
Mon 07:47:48 AM 41.5333 -73.7833 181° South 291 335 10,200 -1,368 Descending New York TRACON
Mon 07:48:48 AM 41.4667 -73.7833 180° South 287 330 9,000 -1,050 Descending New York TRACON
Mon 07:49:48 AM 41.3833 -73.8000 189° South 276 318 8,100 -526 Descending New York TRACON
Mon 07:50:42 AM 41.3167 -73.7667 159° South 298 343 8,000 -158 Descending New York TRACON
Mon 07:51:42 AM 41.2500 -73.7167 151° Southeast 292 336 7,800 -1,100 Descending New York TRACON
Mon 07:52:42 AM 41.1833 -73.6833 159° South 275 316 5,800 -1,850 Descending New York TRACON
Mon 07:53:42 AM 41.1000 -73.7000 189° South 263 303 4,100 -700 Descending New York TRACON
Mon 07:55:42 AM 40.9667 -73.7167 185° South 259 298 3,700 -467 Descending New York TRACON
Mon 07:56:42 AM 40.9000 -73.7667 210° Southwest 254 292 2,700 -947 Descending New York TRACON
Mon 07:57:36 AM 40.8500 -73.8167 217° Southwest 231 266 1,900 -947 Descending New York TRACON
Mon 07:58:36 AM 40.8167 -73.8500 217° Southwest 154 177 900 -1,000 Descending New York TRACON
Mon 08:00:00 AM 40.7772 -73.8726 180° South  Level Estimated
Mon 08:07:00 AM 40.7772 -73.8726 180° South  Level Estimated

Login

Don't have an account? Register now (free) for customized features, flight alerts, and more!